Time;durP1;ratioP1;P1;durP2;ratioP2;P2;SDS_P1;SDS_P2;PMS_P1;PMS_P2;Temp;Humidity;BMP_temperature;BMP_pressure;BME280_temperature;BME280_humidity;BME280_pressure;Samples;Min_cycle;Max_cycle;Signal;HPM_P1;HPM_P2
2022/03/26 00:01:38;;;;;;;133.23;65.32;;;7.10;99.90;;;;;;5074795;28;20521;-70
2022/03/26 00:04:03;;;;;;;134.82;65.28;;;7.00;99.90;;;;;;5074684;28;20467;-70
2022/03/26 00:06:29;;;;;;;132.60;64.45;;;;;;;;;;5074476;28;20119;-70
2022/03/26 00:08:55;;;;;;;133.02;62.33;;;;;;;;;;5074322;28;20041;-70
2022/03/26 00:11:22;;;;;;;145.25;67.72;;;;;;;;;;5074341;28;20464;-70
2022/03/26 00:13:48;;;;;;;143.27;69.63;;;;;;;;;;5074580;28;20044;-70
2022/03/26 00:16:14;;;;;;;143.27;68.60;;;;;;;;;;5074412;28;20047;-71
2022/03/26 00:18:39;;;;;;;148.50;69.40;;;7.00;99.90;;;;;;5056519;28;20055;-70
2022/03/26 00:21:05;;;;;;;143.88;68.60;;;;;;;;;;5056216;28;20052;-70
2022/03/26 00:23:32;;;;;;;152.57;71.10;;;;;;;;;;5074238;28;20053;-70
2022/03/26 00:26:00;;;;;;;147.98;68.85;;;7.10;99.90;;;;;;5073942;28;20045;-70
2022/03/26 00:28:26;;;;;;;148.25;70.18;;;;;;;;;;5074422;28;20041;-70
2022/03/26 00:30:52;;;;;;;143.60;66.95;;;;;;;;;;5073769;28;20490;-71
2022/03/26 00:33:18;;;;;;;148.02;67.22;;;;;;;;;;5086181;28;20038;-70
2022/03/26 00:35:46;;;;;;;145.73;68.15;;;6.90;99.90;;;;;;5094244;28;20036;-69
2022/03/26 00:38:11;;;;;;;146.32;67.95;;;6.90;99.90;;;;;;5094255;28;20047;-70
2022/03/26 00:40:37;;;;;;;156.80;74.03;;;;;;;;;;5093726;28;20047;-70
2022/03/26 00:43:04;;;;;;;147.95;67.30;;;7.00;99.90;;;;;;5094416;28;20059;-70
2022/03/26 00:45:29;;;;;;;142.15;68.22;;;6.90;99.90;;;;;;5094254;28;20043;-70
2022/03/26 00:47:59;;;;;;;151.20;66.82;;;6.80;99.90;;;;;;5094160;28;20402;-71
2022/03/26 00:50:26;;;;;;;139.95;67.90;;;;;;;;;;5075923;28;20126;-71
2022/03/26 00:52:52;;;;;;;146.02;67.30;;;;;;;;;;5076112;28;20044;-70
2022/03/26 00:55:18;;;;;;;149.48;68.63;;;;;;;;;;5075502;28;20048;-70
2022/03/26 00:57:44;;;;;;;158.73;70.82;;;;;;;;;;5075807;28;20132;-71
2022/03/26 01:00:10;;;;;;;147.38;69.55;;;6.80;99.90;;;;;;5075525;28;20051;-70
2022/03/26 01:02:36;;;;;;;147.05;69.30;;;;;;;;;;5076054;28;20500;-70
2022/03/26 01:05:04;;;;;;;154.77;74.93;;;;;;;;;;5075159;28;20402;-70
2022/03/26 01:07:30;;;;;;;163.25;71.35;;;6.80;99.90;;;;;;5075922;28;20134;-70
2022/03/26 01:09:56;;;;;;;151.55;73.13;;;6.80;99.90;;;;;;5093225;28;20385;-69
2022/03/26 01:12:23;;;;;;;155.35;71.25;;;6.70;99.90;;;;;;5075950;28;20051;-70
2022/03/26 01:14:50;;;;;;;150.85;67.50;;;6.40;99.90;;;;;;5075638;28;20036;-70
2022/03/26 01:17:16;;;;;;;152.27;70.53;;;6.70;99.90;;;;;;5075441;28;20081;-70
2022/03/26 01:19:43;;;;;;;152.18;68.05;;;6.60;99.90;;;;;;5063937;28;20127;-70
2022/03/26 01:22:08;;;;;;;146.80;72.35;;;6.60;99.90;;;;;;5055240;28;20045;-70
2022/03/26 01:24:34;;;;;;;144.57;69.40;;;6.50;99.90;;;;;;5055591;28;20036;-70
2022/03/26 01:27:00;;;;;;;151.38;68.45;;;6.50;99.90;;;;;;5055220;28;20051;-70
2022/03/26 01:29:26;;;;;;;151.90;70.13;;;;;;;;;;5054940;28;20036;-70
2022/03/26 01:31:52;;;;;;;149.00;68.07;;;6.40;99.90;;;;;;5055118;28;20051;-70
2022/03/26 01:34:19;;;;;;;150.43;69.50;;;6.50;99.90;;;;;;5068647;28;20394;-70
2022/03/26 01:36:44;;;;;;;150.20;69.38;;;6.30;99.90;;;;;;5058225;28;20524;-70
2022/03/26 01:39:10;;;;;;;146.82;69.40;;;;;;;;;;5092864;28;20063;-69
2022/03/26 01:41:36;;;;;;;154.75;69.93;;;6.30;99.90;;;;;;5093274;28;20145;-71
2022/03/26 01:44:02;;;;;;;148.40;67.88;;;;;;;;;;5092982;28;20505;-70
2022/03/26 01:46:47;;;;;;;148.80;69.72;;;6.40;99.90;;;;;;5092947;28;20600;-68
2022/03/26 01:49:13;;;;;;;157.73;70.43;;;;;;;;;;5092696;28;20043;-70
2022/03/26 01:51:39;;;;;;;145.07;68.22;;;;;;;;;;5074558;28;20069;-70
2022/03/26 01:54:05;;;;;;;156.70;70.45;;;;;;;;;;5093040;28;20047;-70
2022/03/26 01:56:31;;;;;;;155.05;72.88;;;6.20;99.90;;;;;;5092720;28;20044;-70
2022/03/26 01:58:58;;;;;;;143.23;68.40;;;6.10;99.90;;;;;;5092778;28;20044;-71
2022/03/26 02:01:24;;;;;;;155.73;70.32;;;6.30;99.90;;;;;;5092714;28;20051;-70
2022/03/26 02:03:50;;;;;;;149.68;72.45;;;6.30;99.90;;;;;;5092531;28;20040;-70
2022/03/26 02:06:15;;;;;;;156.32;72.10;;;6.20;99.90;;;;;;5092461;28;20132;-70
2022/03/26 02:08:41;;;;;;;155.18;69.57;;;;;;;;;;5092733;28;20040;-70
2022/03/26 02:11:07;;;;;;;155.07;71.28;;;6.10;99.90;;;;;;5092572;28;20043;-70
2022/03/26 02:13:53;;;;;;;152.32;69.60;;;6.20;99.90;;;;;;5092617;28;20036;-70
2022/03/26 02:16:20;;;;;;;163.35;73.68;;;6.20;99.90;;;;;;5091824;28;20036;-70
2022/03/26 02:18:46;;;;;;;160.88;73.40;;;;;;;;;;5089337;28;20490;-70
2022/03/26 02:21:11;;;;;;;152.60;68.82;;;6.00;99.90;;;;;;5072139;28;20105;-70
2022/03/26 02:23:37;;;;;;;158.25;72.63;;;5.90;99.90;;;;;;5054575;28;20055;-70
2022/03/26 02:26:03;;;;;;;159.10;71.35;;;;;;;;;;5072130;28;20115;-70
2022/03/26 02:28:30;;;;;;;162.82;70.82;;;5.90;99.90;;;;;;5054361;28;20218;-70
2022/03/26 02:30:56;;;;;;;166.57;74.97;;;;;;;;;;5071741;28;20111;-70
2022/03/26 02:33:21;;;;;;;163.68;72.07;;;5.80;99.90;;;;;;5084666;28;20170;-70
2022/03/26 02:35:47;;;;;;;154.23;73.15;;;5.80;99.90;;;;;;5092252;28;20043;-70
2022/03/26 02:38:13;;;;;;;163.50;75.53;;;;;;;;;;5092442;28;20044;-71
2022/03/26 02:40:39;;;;;;;164.75;75.40;;;;;;;;;;5073822;28;20044;-70
2022/03/26 02:43:08;;;;;;;165.15;78.10;;;6.00;99.90;;;;;;5073917;28;20121;-69
2022/03/26 02:45:34;;;;;;;160.20;74.45;;;5.90;99.90;;;;;;5073627;28;20036;-70
2022/03/26 02:47:59;;;;;;;172.35;74.55;;;5.80;99.90;;;;;;5091963;28;20497;-70
2022/03/26 02:50:25;;;;;;;161.25;73.63;;;;;;;;;;5091760;28;20044;-70
2022/03/26 02:52:51;;;;;;;160.32;71.50;;;5.90;99.90;;;;;;5092074;28;20591;-69
2022/03/26 02:55:17;;;;;;;161.13;72.90;;;5.60;99.90;;;;;;5091692;28;20040;-70
2022/03/26 02:57:46;;;;;;;154.15;70.85;;;5.80;99.90;;;;;;5091815;28;20405;-69
2022/03/26 03:00:14;;;;;;;157.32;71.95;;;5.80;99.90;;;;;;5091288;28;20044;-70
2022/03/26 03:02:41;;;;;;;156.45;71.88;;;5.50;99.90;;;;;;5092122;28;20036;-70
2022/03/26 03:05:07;;;;;;;154.98;72.32;;;5.60;99.90;;;;;;5091761;28;20032;-70
2022/03/26 03:07:32;;;;;;;164.02;71.15;;;;;;;;;;5091695;28;20089;-70
2022/03/26 03:09:59;;;;;;;148.23;67.47;;;;;;;;;;5073354;28;20197;-70
2022/03/26 03:12:26;;;;;;;160.50;71.03;;;;;;;;;;5091748;28;20067;-71
2022/03/26 03:14:52;;;;;;;155.52;73.15;;;;;;;;;;5091635;28;20128;-69
2022/03/26 03:17:18;;;;;;;158.50;71.88;;;5.50;99.90;;;;;;5091586;28;20040;-70
2022/03/26 03:19:44;;;;;;;165.60;72.65;;;5.60;99.90;;;;;;5079626;28;20048;-68
2022/03/26 03:22:09;;;;;;;160.43;71.80;;;5.50;99.90;;;;;;5071478;28;20075;-70
2022/03/26 03:24:35;;;;;;;158.13;68.75;;;;;;;;;;5071356;28;20118;-70
2022/03/26 03:27:01;;;;;;;155.93;69.80;;;5.60;99.90;;;;;;5053380;28;20044;-70
2022/03/26 03:29:26;;;;;;;147.07;67.53;;;5.60;99.90;;;;;;5074626;28;20078;-70
2022/03/26 03:31:52;;;;;;;156.35;68.47;;;5.60;99.90;;;;;;5075282;28;20514;-70
2022/03/26 03:34:19;;;;;;;151.77;68.30;;;;;;;;;;5075562;28;20076;-70
2022/03/26 03:36:44;;;;;;;152.57;67.50;;;5.40;99.90;;;;;;5075373;28;20505;-70
2022/03/26 03:39:10;;;;;;;146.77;68.00;;;;;;;;;;5075118;28;20044;-70
2022/03/26 03:41:36;;;;;;;148.10;70.85;;;5.40;99.90;;;;;;5075258;28;20297;-70
2022/03/26 03:44:02;;;;;;;150.35;68.30;;;5.40;99.90;;;;;;5074905;28;20106;-70
2022/03/26 03:46:30;;;;;;;149.48;69.28;;;5.30;99.90;;;;;;5075285;28;20037;-70
2022/03/26 03:48:56;;;;;;;144.93;67.43;;;;;;;;;;5075021;28;20040;-70
2022/03/26 03:51:22;;;;;;;157.25;68.95;;;5.40;99.90;;;;;;5075007;28;20161;-70
2022/03/26 03:53:47;;;;;;;153.70;71.13;;;5.40;99.90;;;;;;5074918;28;20040;-70
2022/03/26 03:56:13;;;;;;;147.65;66.97;;;;;;;;;;5074764;28;20128;-70
2022/03/26 03:58:39;;;;;;;148.30;67.38;;;;;;;;;;5074682;28;20506;-70
2022/03/26 04:01:05;;;;;;;139.13;66.10;;;;;;;;;;5074722;28;20048;-70
2022/03/26 04:03:31;;;;;;;148.13;68.32;;;5.20;99.90;;;;;;5074823;28;20052;-70
2022/03/26 04:05:58;;;;;;;140.40;65.55;;;5.10;99.90;;;;;;5074704;28;20051;-70
2022/03/26 04:08:24;;;;;;;150.23;69.20;;;;;;;;;;5074825;28;20048;-69
2022/03/26 04:10:50;;;;;;;166.85;70.82;;;;;;;;;;5056540;28;20045;-71
2022/03/26 04:13:16;;;;;;;163.45;71.20;;;;;;;;;;5056879;28;20139;-71
2022/03/26 04:15:42;;;;;;;161.82;71.20;;;;;;;;;;5056481;28;20542;-70
2022/03/26 04:18:07;;;;;;;154.23;69.90;;;5.20;99.90;;;;;;5074756;28;20072;-70
2022/03/26 04:20:35;;;;;;;168.35;73.20;;;5.10;99.90;;;;;;5073969;28;20048;-70
2022/03/26 04:23:01;;;;;;;169.80;72.82;;;5.00;99.90;;;;;;5074543;28;20041;-71
2022/03/26 04:25:27;;;;;;;172.00;76.35;;;;;;;;;;5074347;28;20506;-70
2022/03/26 04:27:53;;;;;;;167.68;73.90;;;;;;;;;;5074149;28;20033;-70
2022/03/26 04:30:18;;;;;;;170.07;77.00;;;5.00;99.90;;;;;;5074253;28;20116;-70
2022/03/26 04:32:44;;;;;;;171.52;76.00;;;5.20;99.90;;;;;;5059263;28;20127;-70
2022/03/26 04:35:10;;;;;;;174.35;76.03;;;5.20;99.90;;;;;;5094569;28;20036;-69
2022/03/26 04:37:37;;;;;;;168.23;72.68;;;5.10;99.90;;;;;;5094562;28;20086;-70
2022/03/26 04:40:04;;;;;;;161.88;72.22;;;5.10;99.90;;;;;;5092658;28;20043;-70
2022/03/26 04:42:30;;;;;;;161.48;70.40;;;5.20;99.90;;;;;;5094196;28;20040;-70
2022/03/26 04:44:56;;;;;;;159.68;72.55;;;5.20;99.90;;;;;;5094510;28;20550;-70
2022/03/26 04:47:22;;;;;;;169.52;71.88;;;;;;;;;;5094160;28;20051;-70
2022/03/26 04:49:48;;;;;;;162.75;70.72;;;;;;;;;;5093842;28;20035;-70
2022/03/26 04:52:14;;;;;;;174.55;75.50;;;;;;;;;;5076228;28;20067;-70
2022/03/26 04:54:42;;;;;;;179.88;77.68;;;;;;;;;;5093828;28;20062;-69
2022/03/26 04:57:09;;;;;;;172.27;74.60;;;;;;;;;;5093788;28;20055;-70
2022/03/26 04:59:35;;;;;;;157.02;71.03;;;5.20;99.90;;;;;;5075780;28;20094;-70
2022/03/26 05:02:00;;;;;;;166.43;71.05;;;5.00;99.90;;;;;;5093630;28;20079;-68
2022/03/26 05:04:26;;;;;;;156.35;71.25;;;5.10;99.90;;;;;;5093959;28;20089;-70
2022/03/26 05:06:51;;;;;;;158.68;71.03;;;5.00;99.90;;;;;;5093755;28;20042;-70
2022/03/26 05:09:17;;;;;;;154.85;72.22;;;4.90;99.90;;;;;;5093864;28;20482;-69
2022/03/26 05:11:43;;;;;;;151.52;69.10;;;;;;;;;;5093383;28;20042;-69
2022/03/26 05:14:08;;;;;;;162.07;71.20;;;5.00;99.90;;;;;;5093890;28;20039;-70
2022/03/26 05:16:34;;;;;;;157.20;72.07;;;4.90;99.90;;;;;;5093668;28;20044;-69
2022/03/26 05:19:00;;;;;;;165.35;71.32;;;5.00;99.90;;;;;;5088241;28;20417;-68
2022/03/26 05:21:26;;;;;;;159.55;71.70;;;;;;;;;;5073310;28;20043;-70
2022/03/26 05:23:52;;;;;;;167.07;72.03;;;;;;;;;;5055156;28;20048;-70
2022/03/26 05:26:21;;;;;;;159.43;73.57;;;5.00;99.90;;;;;;5073220;28;20068;-70
2022/03/26 05:28:46;;;;;;;160.98;69.97;;;4.90;99.90;;;;;;5073584;28;20043;-70
2022/03/26 05:31:12;;;;;;;161.57;71.20;;;;;;;;;;5073180;28;20044;-70
2022/03/26 05:33:38;;;;;;;154.75;67.28;;;;;;;;;;5088023;28;20485;-71
2022/03/26 05:36:04;;;;;;;167.07;71.85;;;5.00;99.90;;;;;;5075349;28;20044;-70
2022/03/26 05:38:31;;;;;;;156.07;68.07;;;;;;;;;;5075001;28;20177;-70
2022/03/26 05:40:57;;;;;;;166.57;72.05;;;5.00;99.90;;;;;;5074903;28;20047;-70
2022/03/26 05:43:24;;;;;;;164.68;70.60;;;;;;;;;;5075261;28;20036;-70
2022/03/26 05:45:51;;;;;;;158.13;71.18;;;4.90;99.90;;;;;;5093191;28;20036;-69
2022/03/26 05:48:17;;;;;;;153.70;66.95;;;5.00;99.90;;;;;;5093144;28;20493;-69
2022/03/26 05:50:44;;;;;;;152.32;67.50;;;;;;;;;;5074897;28;20409;-70
2022/03/26 05:53:10;;;;;;;149.10;69.90;;;5.10;99.90;;;;;;5092970;28;20573;-70
2022/03/26 05:55:36;;;;;;;156.35;70.25;;;5.10;99.90;;;;;;5093047;28;20386;-69
2022/03/26 05:58:02;;;;;;;159.77;69.93;;;5.10;99.90;;;;;;5092962;28;20047;-70
2022/03/26 06:00:28;;;;;;;159.00;68.65;;;4.90;99.90;;;;;;5074733;28;20118;-69
2022/03/26 06:02:53;;;;;;;151.93;68.03;;;5.10;99.90;;;;;;5092959;28;20567;-70
2022/03/26 06:05:19;;;;;;;158.20;70.07;;;5.10;99.90;;;;;;5093277;28;20032;-70
2022/03/26 06:07:45;;;;;;;164.10;72.00;;;5.20;99.90;;;;;;5092535;28;20496;-69
2022/03/26 06:10:10;;;;;;;144.80;67.20;;;5.30;99.90;;;;;;5092339;28;20089;-70
2022/03/26 06:12:36;;;;;;;152.15;70.85;;;5.60;99.90;;;;;;5092813;28;20040;-69
2022/03/26 06:15:06;;;;;;;164.93;73.30;;;;;;;;;;5092632;28;20044;-69
2022/03/26 06:17:32;;;;;;;163.50;69.63;;;5.30;99.90;;;;;;5074643;28;20127;-69
2022/03/26 06:19:57;;;;;;;157.85;70.45;;;5.20;99.90;;;;;;5078723;28;20124;-69
2022/03/26 06:22:23;;;;;;;152.98;70.97;;;5.50;99.90;;;;;;5071892;28;20524;-69
2022/03/26 06:24:48;;;;;;;164.40;73.20;;;5.40;99.90;;;;;;5072302;28;20036;-69
2022/03/26 06:27:15;;;;;;;164.52;73.97;;;5.80;99.90;;;;;;5072119;28;20048;-70
2022/03/26 06:29:41;;;;;;;151.80;70.10;;;5.50;99.90;;;;;;5071793;28;20052;-70
2022/03/26 06:32:07;;;;;;;165.10;73.20;;;5.80;99.90;;;;;;5073947;28;20115;-70
2022/03/26 06:34:32;;;;;;;159.95;71.40;;;6.00;99.90;;;;;;5092329;28;20585;-69
2022/03/26 06:36:58;;;;;;;151.90;69.25;;;5.90;99.90;;;;;;5092019;28;20115;-71
2022/03/26 06:39:25;;;;;;;148.52;69.05;;;6.00;99.90;;;;;;5091900;28;20123;-71
2022/03/26 06:41:51;;;;;;;158.93;69.35;;;6.30;99.90;;;;;;5092257;28;20043;-70
2022/03/26 06:44:17;;;;;;;160.38;74.53;;;6.40;99.90;;;;;;5092119;28;20036;-70
2022/03/26 06:46:42;;;;;;;158.63;70.78;;;6.30;99.90;;;;;;5092046;28;20040;-71
2022/03/26 06:49:09;;;;;;;154.38;71.18;;;6.40;99.90;;;;;;5091693;28;20032;-71
2022/03/26 06:51:37;;;;;;;160.60;70.65;;;6.30;99.90;;;;;;5091788;28;20040;-70
2022/03/26 06:54:03;;;;;;;149.43;66.65;;;6.70;99.90;;;;;;5091847;28;20055;-70
2022/03/26 06:56:29;;;;;;;156.52;69.68;;;6.80;99.90;;;;;;5091797;28;20116;-71
2022/03/26 06:58:55;;;;;;;150.07;69.45;;;6.80;99.90;;;;;;5091759;28;20035;-71
2022/03/26 07:01:20;;;;;;;161.55;72.55;;;7.10;99.90;;;;;;5091558;28;20490;-71
2022/03/26 07:03:47;;;;;;;146.45;65.60;;;6.90;99.90;;;;;;5091006;28;20047;-71
2022/03/26 07:06:15;;;;;;;141.85;65.25;;;7.20;99.90;;;;;;5091472;28;20435;-71
2022/03/26 07:08:41;;;;;;;147.25;70.15;;;7.20;99.90;;;;;;5091976;28;20036;-70
2022/03/26 07:11:06;;;;;;;143.35;65.03;;;7.20;99.90;;;;;;5091555;28;20509;-70
2022/03/26 07:13:32;;;;;;;148.80;69.15;;;7.50;99.90;;;;;;5079964;28;20083;-70
2022/03/26 07:15:57;;;;;;;153.55;69.30;;;7.70;99.90;;;;;;5071317;28;20139;-72
2022/03/26 07:18:23;;;;;;;145.50;69.40;;;7.60;99.90;;;;;;5074064;28;20035;-70
2022/03/26 07:20:49;;;;;;;143.68;68.85;;;7.90;99.90;;;;;;5070987;28;20521;-70
2022/03/26 07:23:15;;;;;;;153.70;67.72;;;8.00;99.90;;;;;;5071646;28;20088;-71
2022/03/26 07:25:40;;;;;;;161.80;70.75;;;8.00;99.90;;;;;;5071357;28;20033;-70
2022/03/26 07:28:07;;;;;;;145.65;67.85;;;8.10;99.90;;;;;;5076919;28;20036;-69
2022/03/26 07:30:33;;;;;;;152.80;67.82;;;8.20;99.90;;;;;;5080389;28;20044;-69
2022/03/26 07:32:58;;;;;;;134.45;65.38;;;8.30;99.90;;;;;;5081242;28;20089;-69
2022/03/26 07:35:24;;;;;;;135.73;63.63;;;8.50;99.90;;;;;;5089136;28;20436;-69
2022/03/26 07:37:49;;;;;;;141.77;65.57;;;8.50;99.90;;;;;;5071234;28;20045;-70
2022/03/26 07:40:15;;;;;;;140.05;63.53;;;8.60;99.90;;;;;;5071084;28;20036;-70
2022/03/26 07:42:40;;;;;;;127.18;60.60;;;8.60;99.90;;;;;;5071321;28;20043;-70
2022/03/26 07:45:07;;;;;;;119.10;59.53;;;8.80;99.90;;;;;;5071177;28;20033;-69
2022/03/26 07:47:37;;;;;;;128.07;59.25;;;8.60;99.90;;;;;;5071251;28;20052;-68
2022/03/26 07:50:04;;;;;;;134.18;60.85;;;8.90;99.90;;;;;;5070768;28;20036;-70
2022/03/26 07:52:33;;;;;;;123.50;58.63;;;9.00;99.90;;;;;;5071545;28;20045;-69
2022/03/26 07:54:59;;;;;;;129.27;59.08;;;9.20;99.90;;;;;;5063845;28;20036;-69
2022/03/26 07:57:24;;;;;;;119.72;59.40;;;9.40;99.90;;;;;;5086166;28;20062;-67
2022/03/26 07:59:50;;;;;;;115.78;55.58;;;9.40;99.90;;;;;;5077664;28;20119;-69
2022/03/26 08:02:16;;;;;;;121.30;58.85;;;9.40;99.90;;;;;;5069851;28;20048;-69
2022/03/26 08:04:41;;;;;;;119.43;57.22;;;9.50;99.90;;;;;;5068237;28;20107;-69
2022/03/26 08:07:07;;;;;;;121.35;56.38;;;9.60;99.90;;;;;;5067742;28;20037;-69
2022/03/26 08:09:32;;;;;;;124.15;57.10;;;9.90;99.90;;;;;;5066979;28;20064;-69
2022/03/26 08:11:58;;;;;;;114.38;56.17;;;9.80;99.90;;;;;;5067313;28;20140;-68
2022/03/26 08:14:24;;;;;;;107.55;55.28;;;9.90;99.90;;;;;;5075866;28;20053;-70
2022/03/26 08:16:49;;;;;;;107.85;53.33;;;9.90;99.90;;;;;;5082835;28;20085;-68
2022/03/26 08:19:15;;;;;;;116.53;55.15;;;10.00;99.90;;;;;;5088436;28;20044;-70
2022/03/26 08:21:40;;;;;;;120.63;54.85;;;10.20;99.90;;;;;;5074715;28;20032;-70
2022/03/26 08:24:06;;;;;;;96.72;49.10;;;10.30;99.90;;;;;;5074738;28;20131;-68
2022/03/26 08:26:32;;;;;;;94.03;47.42;;;10.60;99.90;;;;;;5073801;28;20035;-70
2022/03/26 08:29:00;;;;;;;108.38;50.33;;;10.60;99.90;;;;;;5077028;28;20028;-69
2022/03/26 08:31:29;;;;;;;94.20;45.60;;;10.70;99.90;;;;;;5081308;28;20043;-69
2022/03/26 08:33:55;;;;;;;93.80;46.03;;;10.80;99.90;;;;;;5074220;28;20118;-70
2022/03/26 08:36:22;;;;;;;99.57;48.53;;;11.10;99.90;;;;;;5058445;28;20071;-70
2022/03/26 08:38:48;;;;;;;94.15;47.88;;;11.20;99.90;;;;;;5076447;28;20037;-70
2022/03/26 08:41:16;;;;;;;93.72;46.55;;;11.20;99.90;;;;;;5080230;28;20123;-70
2022/03/26 08:43:43;;;;;;;89.55;44.78;;;11.30;99.90;;;;;;5075454;28;20620;-70
2022/03/26 08:46:09;;;;;;;87.60;43.30;;;11.40;99.90;;;;;;5074303;28;20437;-70
2022/03/26 08:48:34;;;;;;;86.88;42.10;;;11.40;99.90;;;;;;5073844;28;20098;-68
2022/03/26 08:51:00;;;;;;;92.32;42.95;;;11.60;99.90;;;;;;5073795;28;20044;-69
2022/03/26 08:53:26;;;;;;;87.78;41.10;;;11.60;99.90;;;;;;5074048;28;20094;-70
2022/03/26 08:55:52;;;;;;;85.60;42.15;;;11.90;99.90;;;;;;5073114;28;20123;-70
2022/03/26 08:58:18;;;;;;;81.47;42.58;;;12.10;99.90;;;;;;5073660;28;20494;-70
2022/03/26 09:00:49;;;;;;;77.85;38.97;;;12.20;99.90;;;;;;5073693;28;20036;-71
2022/03/26 09:03:17;;;;;;;80.90;39.22;;;12.30;99.90;;;;;;5074085;28;20037;-70
2022/03/26 09:05:44;;;;;;;71.70;36.03;;;;;;;;;;5063341;28;20114;-70
2022/03/26 09:08:09;;;;;;;61.72;33.30;;;12.20;99.90;;;;;;5085300;28;20081;-69
2022/03/26 09:10:35;;;;;;;70.88;35.47;;;12.50;99.90;;;;;;5091677;28;20443;-70
2022/03/26 09:13:01;;;;;;;68.05;36.88;;;;;;;;;;5091773;28;20574;-70
2022/03/26 09:15:26;;;;;;;68.68;36.50;;;12.60;99.90;;;;;;5092177;28;20036;-70
2022/03/26 09:17:52;;;;;;;68.82;35.35;;;;;;;;;;5090279;28;20520;-71
2022/03/26 09:20:18;;;;;;;61.15;35.10;;;12.70;99.90;;;;;;5089858;28;20036;-69
2022/03/26 09:22:44;;;;;;;73.60;32.88;;;13.10;99.90;;;;;;5073415;28;20040;-69
2022/03/26 09:25:10;;;;;;;61.53;34.85;;;12.90;99.90;;;;;;5093211;28;20036;-70
2022/03/26 09:27:36;;;;;;;67.72;35.90;;;12.80;99.90;;;;;;5092865;28;20401;-70
2022/03/26 09:30:03;;;;;;;59.47;34.38;;;13.00;99.90;;;;;;5093225;28;20047;-70
2022/03/26 09:32:28;;;;;;;59.72;33.35;;;13.20;99.90;;;;;;5093598;28;20043;-69
2022/03/26 09:34:54;;;;;;;82.82;37.05;;;13.20;99.90;;;;;;5094130;28;20050;-70
2022/03/26 09:37:20;;;;;;;63.08;34.42;;;;;;;;;;5094081;28;20085;-70
2022/03/26 09:39:46;;;;;;;61.03;33.30;;;;;;;;;;5093022;28;20086;-70
2022/03/26 09:42:12;;;;;;;60.88;34.15;;;;;;;;;;5093322;28;20044;-69
2022/03/26 09:44:38;;;;;;;59.28;34.38;;;13.40;99.90;;;;;;5093437;28;20032;-70
2022/03/26 09:47:05;;;;;;;68.10;38.78;;;13.40;99.90;;;;;;5093171;28;20079;-69
2022/03/26 09:49:31;;;;;;;62.25;33.25;;;13.50;99.90;;;;;;5092542;28;20040;-70
2022/03/26 09:51:57;;;;;;;60.28;33.45;;;13.70;99.90;;;;;;5092869;28;20097;-70
2022/03/26 09:54:23;;;;;;;58.97;32.50;;;13.50;99.90;;;;;;5092866;28;20111;-70
2022/03/26 09:56:50;;;;;;;56.53;31.45;;;13.60;99.90;;;;;;5092699;28;20537;-70
2022/03/26 09:59:20;;;;;;;55.72;31.48;;;13.70;99.90;;;;;;5092562;28;20050;-70
2022/03/26 10:01:46;;;;;;;55.55;31.35;;;13.80;99.90;;;;;;5092798;28;20043;-70
2022/03/26 10:04:14;;;;;;;56.78;32.47;;;13.90;99.90;;;;;;5092827;28;20032;-70
2022/03/26 10:06:52;;;;;;;50.47;29.65;;;13.90;99.90;;;;;;5092079;28;20043;-70
2022/03/26 10:09:35;;;;;;;53.72;28.73;;;14.00;99.90;;;;;;5092366;28;20111;-69
2022/03/26 10:12:02;;;;;;;;;;;13.80;99.90;;;;;;5092798;28;20100;-70
2022/03/26 10:14:37;;;;;;;44.80;25.58;;;14.30;99.90;;;;;;5092797;28;19916;-70
2022/03/26 10:17:14;;;;;;;45.92;25.33;;;14.10;99.90;;;;;;5092668;28;20051;-70
2022/03/26 10:20:05;;;;;;;39.85;22.80;;;14.40;99.90;;;;;;5090486;28;20072;-69
2022/03/26 10:22:39;;;;;;;36.40;21.95;;;14.40;99.90;;;;;;5079997;28;20513;-70
2022/03/26 10:25:13;;;;;;;35.88;22.40;;;14.70;99.90;;;;;;5091969;28;20086;-69
2022/03/26 10:27:59;;;;;;;32.00;20.55;;;14.60;99.90;;;;;;5092307;28;20038;-70
2022/03/26 10:33:24;;;;;;;29.38;19.10;;;14.60;99.90;;;;;;5088669;28;20054;-69
2022/03/26 10:35:53;;;;;;;;;;;14.70;99.90;;;;;;5092442;28;20035;-69
2022/03/26 10:38:19;;;;;;;27.60;15.18;;;;;;;;;;5073214;28;19916;-70
2022/03/26 10:40:45;;;;;;;23.58;14.43;;;;;;;;;;5091647;28;20527;-70
2022/03/26 10:43:13;;;;;;;26.95;15.10;;;15.20;99.90;;;;;;5091891;28;20048;-71
2022/03/26 10:45:50;;;;;;;21.27;13.68;;;15.00;99.90;;;;;;5092234;28;20032;-70
2022/03/26 10:48:30;;;;;;;22.63;14.65;;;15.30;99.90;;;;;;5092164;28;20032;-70
2022/03/26 10:51:15;;;;;;;18.40;12.05;;;15.10;99.90;;;;;;5091843;28;20036;-70
2022/03/26 10:53:49;;;;;;;20.98;13.07;;;15.30;99.90;;;;;;5091712;28;20213;-70
2022/03/26 10:56:15;;;;;;;14.63;10.65;;;15.30;99.90;;;;;;5091732;28;20568;-70
2022/03/26 10:58:42;;;;;;;18.65;10.88;;;15.60;99.90;;;;;;5085769;28;20116;-70
2022/03/26 11:01:08;;;;;;;14.32;8.98;;;15.40;99.90;;;;;;5083281;28;20040;-70
2022/03/26 11:03:35;;;;;;;18.23;10.18;;;15.60;99.90;;;;;;5091807;28;20086;-71
2022/03/26 11:06:01;;;;;;;20.38;9.27;;;15.30;99.90;;;;;;5091359;28;20032;-71
2022/03/26 11:08:32;;;;;;;19.08;9.20;;;15.70;99.90;;;;;;5073517;28;20044;-71
2022/03/26 11:11:01;;;;;;;13.75;8.60;;;15.70;99.90;;;;;;5091705;28;20044;-71
2022/03/26 11:13:28;;;;;;;12.48;8.55;;;15.70;99.90;;;;;;5091594;28;20071;-71
2022/03/26 11:16:01;;;;;;;17.08;9.50;;;15.70;99.90;;;;;;5091385;28;20115;-71
2022/03/26 11:18:56;;;;;;;17.38;9.15;;;15.70;99.90;;;;;;5091097;28;20047;-72
2022/03/26 11:21:44;;;;;;;13.80;8.38;;;15.70;99.90;;;;;;5086228;28;20445;-71
2022/03/26 11:24:26;;;;;;;14.40;6.65;;;16.00;99.90;;;;;;5091686;28;20039;-71
2022/03/26 11:27:20;;;;;;;9.13;6.93;;;15.80;99.90;;;;;;5091617;28;20044;-70
2022/03/26 11:29:59;;;;;;;10.10;6.78;;;16.00;99.90;;;;;;5085144;28;20053;-70
2022/03/26 11:32:29;;;;;;;15.75;7.00;;;15.90;99.90;;;;;;5080964;28;20292;-70
2022/03/26 11:35:09;;;;;;;11.60;7.15;;;15.80;99.90;;;;;;5074304;28;20036;-69
2022/03/26 11:37:34;;;;;;;13.68;7.70;;;15.60;99.90;;;;;;5081596;28;20509;-67
2022/03/26 11:40:00;;;;;;;11.40;7.13;;;;;;;;;;5080071;28;20086;-70
2022/03/26 11:42:37;;;;;;;13.70;6.18;;;15.90;99.90;;;;;;5075159;28;20086;-70
2022/03/26 11:51:17;;;;;;;9.30;6.97;;;16.00;99.90;;;;;;5055886;28;20047;-71
2022/03/26 11:53:47;;;;;;;12.75;7.05;;;16.10;99.90;;;;;;5080824;28;20406;-69
2022/03/26 11:56:28;;;;;;;12.73;6.60;;;16.10;99.90;;;;;;5091021;28;20513;-71
2022/03/26 11:59:05;;;;;;;9.13;6.13;;;16.10;99.90;;;;;;5081682;28;20044;-69
2022/03/26 12:01:35;;;;;;;10.80;6.22;;;16.00;99.90;;;;;;5088427;28;20047;-70
2022/03/26 12:04:17;;;;;;;8.90;6.30;;;15.90;99.90;;;;;;5091766;28;20046;-69
2022/03/26 12:06:57;;;;;;;7.43;5.43;;;16.10;99.90;;;;;;5079811;28;20047;-71
2022/03/26 12:09:37;;;;;;;8.77;5.80;;;16.10;99.90;;;;;;5071339;28;20036;-70
2022/03/26 12:12:10;;;;;;;7.10;5.38;;;16.00;99.90;;;;;;5093177;28;20527;-71
2022/03/26 12:15:18;;;;;;;9.40;4.88;;;16.00;99.90;;;;;;5076903;28;20056;-71
2022/03/26 12:17:46;;;;;;;9.75;5.07;;;15.70;99.90;;;;;;5086215;28;20067;-70
2022/03/26 12:20:31;;;;;;;10.13;4.97;;;15.90;99.90;;;;;;5088749;28;20047;-70
2022/03/26 12:23:31;;;;;;;10.35;5.05;;;15.80;99.90;;;;;;5085617;28;20109;-69
2022/03/26 12:26:07;;;;;;;12.38;5.18;;;15.50;99.90;;;;;;5041100;28;20105;-70
2022/03/26 12:28:33;;;;;;;8.25;5.10;;;;;;;;;;5083069;28;20375;-70
2022/03/26 12:31:07;;;;;;;8.63;4.32;;;16.00;99.90;;;;;;5084416;28;20036;-70
2022/03/26 12:33:43;;;;;;;10.45;6.95;;;16.00;99.90;;;;;;5086931;28;20102;-70
2022/03/26 12:36:09;;;;;;;9.05;5.47;;;16.20;99.90;;;;;;5088824;28;20465;-71
2022/03/26 12:38:35;;;;;;;10.25;5.05;;;16.10;99.90;;;;;;5094266;28;20064;-70
2022/03/26 12:41:07;;;;;;;7.70;5.43;;;15.70;99.90;;;;;;5094206;28;20040;-71
2022/03/26 12:43:34;;;;;;;8.55;5.07;;;15.80;99.90;;;;;;5094509;28;20410;-71
2022/03/26 12:46:01;;;;;;;7.50;4.38;;;16.10;99.90;;;;;;5094143;28;20044;-70
2022/03/26 12:48:29;;;;;;;9.98;5.40;;;16.00;99.90;;;;;;5094417;28;20393;-69
2022/03/26 12:51:02;;;;;;;7.68;4.78;;;16.00;99.90;;;;;;5093762;28;20040;-69
2022/03/26 12:53:37;;;;;;;8.27;4.25;;;15.80;99.90;;;;;;5094050;28;20067;-70
2022/03/26 12:56:04;;;;;;;6.78;4.38;;;15.70;99.90;;;;;;5093665;28;20079;-70
2022/03/26 13:01:19;;;;;;;5.93;4.07;;;15.70;99.90;;;;;;5092866;28;20497;-69
2022/03/26 13:03:45;;;;;;;9.75;3.42;;;15.70;99.90;;;;;;5093992;28;20044;-70
2022/03/26 13:06:15;;;;;;;5.93;3.80;;;15.60;99.90;;;;;;5093790;28;20108;-70